Friday, May 25, 2018, 8:37 AM EDT
Back to Local

KLWM, Lawrence Municipal Airport

Location: North Andover, MA, United States Lat: 42.717
Local Time: 8:37 AM EDT (12:37 GMT) Lon: -71.133
Time Zone: US/Eastern Elev: 147 ft

Show me the last for .
Show Coded

Time T Td Feel RH Dir Speed Gust Alt SLP Vis Weather Sky Remarks
2018-05-25 07:54 67 51 - 56 240° 10 - 29.94 29.94 10 CLR 6-hr Min Temp (8am): 55.9°F
6-hr Max Temp (8am): 66.9°F
2018-05-25 06:54 61 49 - 64 200° 8 - 29.95 29.95 10 CLR None
2018-05-25 05:54 57 49 - 74 200° 7 - 29.96 29.96 10 CLR None
2018-05-25 04:54 57 49 - 74 200° 9 - 29.96 29.95 10 CLR None
2018-05-25 03:54 57 49 - 74 210° 9 - 29.96 29.96 10 CLR None
2018-05-25 02:54 57 49 - 74 210° 9 - 29.98 29.98 10 CLR None
2018-05-25 01:54 58 49 - 71 210° 12 - 30.00 30.00 10 CLR 6-hr Min Temp (2am): 57.0°F
6-hr Max Temp (2am): 64.9°F
2018-05-25 00:54 58 49 - 71 210° 9 - 30.02 30.02 10 CLR 24-hr Min Temp (1am): 52.0°F
24-hr Max Temp (1am): 75.0°F
2018-05-24 23:54 58 48 - 69 210° 9 - 30.04 30.04 10 CLR None
2018-05-24 22:54 59 48 - 66 220° 8 - 30.06 30.06 10 CLR None
2018-05-24 21:54 61 47 - 59 210° 10 - 30.07 30.07 10 CLR None
2018-05-24 20:54 64 48 - 55 200° 10 - 30.06 30.06 10 CLR None
2018-05-24 19:54 65 51 - 60 Variable 3 - 30.05 30.05 10 CLR 6-hr Min Temp (8pm): 64.9°F
6-hr Max Temp (8pm): 72.0°F
2018-05-24 18:54 67 49 - 52 Variable 3 - 30.06 30.06 10 CLR None
2018-05-24 17:54 69 50 - 50 Variable 7 - 30.06 30.06 10 CLR None
2018-05-24 16:54 71 51 76 49 Variable 6 - 30.06 30.06 10 CLR None
2018-05-24 15:54 71 51 76 49 160° 7 - 30.07 30.07 10 CLR None
2018-05-24 14:54 70 51 - 51 120° 9 - 30.09 30.09 10 CLR None
2018-05-24 13:54 70 51 - 51 120° 8 - 30.10 30.10 10 BKN085 6-hr Min Temp (2pm): 61.0°F
6-hr Max Temp (2pm): 75.0°F
2018-05-24 13:37 70 50 - 49 160° 8 - 30.10 - 10 BKN085 None
2018-05-24 12:54 73 40 - 30 360° 8 - 30.10 30.10 10 BKN085 None
2018-05-24 11:54 72 37 - 27 360° 12 20 30.11 30.11 10 SCT095 None
2018-05-24 10:54 69 42 - 37 310° 6 - 30.12 30.11 10 CLR None
2018-05-24 09:54 66 51 - 58 Variable 5 - 30.12 30.11 10 CLR None
2018-05-24 08:54 63 53 - 70 10° 5 - 30.12 30.12 10 CLR None

Support USWX by starting your Amazon purchase here.